Latest Weather Observations for Warburto Point

IDS60801

Issued at 2:05 pm CST Tuesday 29 July 2014 (issued every 30 minutes, with the page automatically refreshed every 10 minutes)

About weather observations | Map of weather stations | Latest weather observations for SA | Other Formats
Station Details ID: 022053 Name: WARBURTO POINT Lat: -34.00 Lon: 137.53 Height: 1.0 m
Data from the previous 72 hours. | See also: Recent months for locations in South Australia
Date/Time
CST
Temp
°C
App
Temp
°C
Dew
Point
Rel
Hum
%
Delta-T
°C
Wind Press
QNH
hPa
Press
MSL
hPa
Rain
since 9 am
mm
Dir
 
Spd
km/h
Gust
km/h
Spd
kts
Gust
kts
29/02:00pm - - - - - WNW 26 33 14 18 - - -
29/01:30pm - - - - - NW 19 26 10 14 - - -
29/01:00pm - - - - - WNW 20 28 11 15 - - -
29/12:30pm - - - - - NNW 20 26 11 14 - - -
29/12:00pm - - - - - NW 30 37 16 20 - - -
29/11:30am - - - - - NW 28 32 15 17 - - -
29/11:00am - - - - - NW 28 33 15 18 - - -
29/10:30am - - - - - NW 32 39 17 21 - - -
29/10:00am - - - - - NW 32 35 17 19 - - -
29/09:30am - - - - - NNW 32 39 17 21 - - -
29/09:00am - - - - - NW 32 39 17 21 - - -
29/08:30am - - - - - NNW 35 41 19 22 - - -
29/08:00am - - - - - NNW 35 41 19 22 - - -
29/07:30am - - - - - NNW 33 39 18 21 - - -
29/07:00am - - - - - NNW 30 33 16 18 - - -
29/06:30am - - - - - NNW 30 35 16 19 - - -
29/06:00am - - - - - NNW 28 33 15 18 - - -
29/05:30am - - - - - NNW 26 32 14 17 - - -
29/05:00am - - - - - NW 30 33 16 18 - - -
29/04:30am - - - - - NNW 30 35 16 19 - - -
29/04:00am - - - - - NNW 30 33 16 18 - - -
29/03:30am - - - - - NNW 28 35 15 19 - - -
29/03:00am - - - - - NNW 30 33 16 18 - - -
29/02:30am - - - - - NNW 24 30 13 16 - - -
29/02:00am - - - - - NNW 26 30 14 16 - - -
29/01:30am - - - - - NNW 26 32 14 17 - - -
29/01:00am - - - - - NNW 26 30 14 16 - - -
29/12:30am - - - - - NNW 28 32 15 17 - - -
29/12:00am - - - - - NNW 26 30 14 16 - - -
 
Date/Time
CST
Temp
°C
App
Temp
°C
Dew
Point
Rel
Hum
%
Delta-T
°C
Wind Press
QNH
hPa
Press
MSL
hPa
Rain
since 9 am
mm
Dir
 
Spd
km/h
Gust
km/h
Spd
kts
Gust
kts
28/11:30pm - - - - - NNW 26 32 14 17 - - -
28/11:00pm - - - - - NW 24 30 13 16 - - -
28/10:30pm - - - - - NNW 24 28 13 15 - - -
28/10:00pm - - - - - NNW 26 30 14 16 - - -
28/09:30pm - - - - - NW 24 28 13 15 - - -
28/09:00pm - - - - - NNW 24 28 13 15 - - -
28/08:30pm - - - - - NW 24 28 13 15 - - -
28/08:00pm - - - - - NW 22 28 12 15 - - -
28/07:30pm - - - - - NW 22 28 12 15 - - -
28/07:00pm - - - - - NNW 17 19 9 10 - - -
28/06:30pm - - - - - NNW 19 20 10 11 - - -
28/06:00pm - - - - - NNW 19 20 10 11 - - -
28/05:30pm - - - - - NNW 17 20 9 11 - - -
28/05:00pm - - - - - NNW 13 17 7 9 - - -
28/04:30pm - - - - - N 15 17 8 9 - - -
28/04:00pm - - - - - N 13 17 7 9 - - -
28/03:30pm - - - - - N 11 13 6 7 - - -
28/03:00pm - - - - - N 13 15 7 8 - - -
28/02:30pm - - - - - N 13 15 7 8 - - -
28/02:00pm - - - - - N 13 17 7 9 - - -
28/01:30pm - - - - - N 15 19 8 10 - - -
28/01:00pm - - - - - N 15 19 8 10 - - -
28/12:30pm - - - - - N 15 19 8 10 - - -
28/12:00pm - - - - - N 15 19 8 10 - - -
28/11:30am - - - - - N 15 19 8 10 - - -
28/11:00am - - - - - NNW 15 17 8 9 - - -
28/10:30am - - - - - NNW 15 19 8 10 - - -
28/10:00am - - - - - NNW 17 20 9 11 - - -
28/09:30am - - - - - N 17 20 9 11 - - -
28/09:00am - - - - - N 15 17 8 9 - - -
28/08:30am - - - - - N 13 17 7 9 - - -
28/08:00am - - - - - NNW 13 15 7 8 - - -
28/07:30am - - - - - N 17 20 9 11 - - -
28/07:00am - - - - - NNW 17 19 9 10 - - -
28/06:30am - - - - - NW 15 17 8 9 - - -
28/06:00am - - - - - NW 13 15 7 8 - - -
28/05:30am - - - - - WNW 13 15 7 8 - - -
28/05:00am - - - - - WNW 13 17 7 9 - - -
28/04:30am - - - - - NNW 13 15 7 8 - - -
28/04:00am - - - - - N 9 11 5 6 - - -
28/03:30am - - - - - N 9 11 5 6 - - -
28/03:00am - - - - - NNW 11 13 6 7 - - -
28/02:30am - - - - - NNW 9 15 5 8 - - -
28/02:00am - - - - - NNE 13 17 7 9 - - -
28/01:30am - - - - - N 15 19 8 10 - - -
28/01:00am - - - - - N 17 19 9 10 - - -
28/12:30am - - - - - N 19 22 10 12 - - -
28/12:00am - - - - - N 19 22 10 12 - - -
 
Date/Time
CST
Temp
°C
App
Temp
°C
Dew
Point
Rel
Hum
%
Delta-T
°C
Wind Press
QNH
hPa
Press
MSL
hPa
Rain
since 9 am
mm
Dir
 
Spd
km/h
Gust
km/h
Spd
kts
Gust
kts
27/11:30pm - - - - - N 20 24 11 13 - - -
27/11:00pm - - - - - N 22 26 12 14 - - -
27/10:30pm - - - - - N 26 28 14 15 - - -
27/10:00pm - - - - - N 24 28 13 15 - - -
27/09:30pm - - - - - N 24 28 13 15 - - -
27/09:00pm - - - - - N 19 20 10 11 - - -
27/08:30pm - - - - - N 17 19 9 10 - - -
27/08:00pm - - - - - N 13 15 7 8 - - -
27/07:30pm - - - - - N 19 22 10 12 - - -
27/07:00pm - - - - - N 24 26 13 14 - - -
27/06:00pm - - - - - N 20 22 11 12 - - -
27/05:30pm - - - - - NNE 22 28 12 15 - - -
27/05:00pm - - - - - N 24 30 13 16 - - -
27/04:30pm - - - - - N 24 28 13 15 - - -
27/04:00pm - - - - - N 28 32 15 17 - - -
27/03:30pm - - - - - N 28 32 15 17 - - -
27/03:00pm - - - - - NNE 30 35 16 19 - - -
27/02:30pm - - - - - NNE 30 35 16 19 - - -
27/02:00pm - - - - - NNE 35 39 19 21 - - -
27/01:30pm - - - - - N 32 39 17 21 - - -
27/01:00pm - - - - - N 37 48 20 26 - - -
27/12:30pm - - - - - N 37 44 20 24 - - -
27/12:00pm - - - - - N 35 43 19 23 - - -
27/11:30am - - - - - N 30 37 16 20 - - -
27/11:00am - - - - - N 32 37 17 20 - - -
27/10:30am - - - - - NNE 33 39 18 21 - - -
27/10:00am - - - - - N 32 37 17 20 - - -
27/09:30am - - - - - N 32 37 17 20 - - -
27/09:00am - - - - - N 28 33 15 18 - - -
27/08:30am - - - - - N 26 30 14 16 - - -
27/08:00am - - - - - N 22 28 12 15 - - -
27/07:30am - - - - - NNE 19 22 10 12 - - -
27/07:00am - - - - - NNE 22 26 12 14 - - -
27/06:30am - - - - - NNE 24 28 13 15 - - -
27/06:00am - - - - - NNE 22 28 12 15 - - -
27/05:30am - - - - - N 22 26 12 14 - - -
27/05:00am - - - - - N 24 28 13 15 - - -
27/04:30am - - - - - N 20 28 11 15 - - -
27/04:00am - - - - - N 20 24 11 13 - - -
27/03:30am - - - - - N 17 19 9 10 - - -
27/03:00am - - - - - N 19 22 10 12 - - -
27/02:30am - - - - - NNE 19 22 10 12 - - -
27/02:00am - - - - - NE 15 19 8 10 - - -
27/01:30am - - - - - NE 15 17 8 9 - - -
27/01:00am - - - - - NE 19 20 10 11 - - -
27/12:30am - - - - - NE 17 19 9 10 - - -
27/12:00am - - - - - NE 17 17 9 9 - - -
 
Date/Time
CST
Temp
°C
App
Temp
°C
Dew
Point
Rel
Hum
%
Delta-T
°C
Wind Press
QNH
hPa
Press
MSL
hPa
Rain
since 9 am
mm
Dir
 
Spd
km/h
Gust
km/h
Spd
kts
Gust
kts
26/11:30pm - - - - - NE 17 17 9 9 - - -
26/11:00pm - - - - - NE 15 17 8 9 - - -
26/10:30pm - - - - - NE 17 19 9 10 - - -
26/10:00pm - - - - - ENE 15 17 8 9 - - -
26/09:30pm - - - - - ENE 15 17 8 9 - - -
26/09:00pm - - - - - E 19 20 10 11 - - -
26/08:30pm - - - - - ENE 19 20 10 11 - - -
26/08:00pm - - - - - E 19 20 10 11 - - -
26/07:30pm - - - - - E 17 19 9 10 - - -
26/07:00pm - - - - - ENE 19 19 10 10 - - -
26/06:30pm - - - - - ENE 17 19 9 10 - - -
26/06:00pm - - - - - ENE 13 13 7 7 - - -
26/05:30pm - - - - - NNE 11 13 6 7 - - -
26/05:00pm - - - - - NNE 15 17 8 9 - - -
26/04:30pm - - - - - N 19 20 10 11 - - -
26/04:00pm - - - - - N 17 22 9 12 - - -
26/03:30pm - - - - - NNE 19 22 10 12 - - -
26/03:00pm - - - - - NNE 15 17 8 9 - - -
26/02:30pm - - - - - NNE 17 20 9 11 - - -

Other Formats:

Comma delimited format used in spreadsheet applications
http://www.bom.gov.au/fwo/IDS60801/IDS60801.94666.axf

JavaScript Object Notation format (JSON) in row-major order
http://www.bom.gov.au/fwo/IDS60801/IDS60801.94666.json